Terminal Aerodrome Forecast
Issued by NWS

Home | Current Version | Previous Version | Text Only | Print | Product List | Glossary On
Versions: 1 2 3 4 5 6 7 8 9 10 11 12
230
FTUS43 KBIS 301133
TAFMOT
TAF
KMOT 301133Z 3012/0112 12009KT P6SM VCSH OVC200 WS020/18035KT
     FM301400 15016G22KT P6SM VCSH OVC100
     FM010200 13010KT P6SM BKN150=

USA.gov is the U.S. government's official web portal to all federal, state and local government web resources and services.